Time;durP1;ratioP1;P1;durP2;ratioP2;P2;SDS_P1;SDS_P2;PMS_P1;PMS_P2;Temp;Humidity;BMP_temperature;BMP_pressure;BME280_temperature;BME280_humidity;BME280_pressure;Samples;Min_cycle;Max_cycle;Signal;HPM_P1;HPM_P2
2023/07/08 00:01:12;;;;;;;8.13;6.47;;;19.60;99.90;;;;;;6253663;28;20241;-63
2023/07/08 00:04:15;;;;;;;5.83;5.33;;;19.60;99.90;;;;;;6252208;28;20252;-63
2023/07/08 00:07:21;;;;;;;6.53;5.93;;;19.60;99.90;;;;;;6251681;28;20244;-63
2023/07/08 00:10:27;;;;;;;6.57;5.50;;;19.50;99.90;;;;;;6250675;28;20224;-63
2023/07/08 00:13:30;;;;;;;6.63;5.20;;;19.50;99.90;;;;;;6250066;28;20287;-63
2023/07/08 00:16:35;;;;;;;11.47;6.17;;;19.50;99.90;;;;;;6250732;28;20239;-63
2023/07/08 00:19:39;;;;;;;5.97;5.43;;;19.60;99.90;;;;;;6250085;28;20231;-64
2023/07/08 00:22:42;;;;;;;6.50;5.90;;;19.60;99.90;;;;;;6249612;28;20666;-64
2023/07/08 00:25:46;;;;;;;6.70;5.67;;;19.60;99.90;;;;;;6250013;28;20247;-63
2023/07/08 00:28:49;;;;;;;7.97;5.47;;;19.60;99.90;;;;;;6249626;28;20319;-63
2023/07/08 00:31:53;;;;;;;6.30;5.67;;;19.60;99.90;;;;;;6249764;28;20296;-63
2023/07/08 00:34:56;;;;;;;6.57;5.93;;;19.50;99.90;;;;;;6233654;28;20320;-63
2023/07/08 00:38:01;;;;;;;6.87;5.93;;;19.60;99.90;;;;;;6225369;28;20395;-63
2023/07/08 00:41:12;;;;;;;6.37;5.77;;;19.60;99.90;;;;;;6225562;28;20240;-63
2023/07/08 00:44:15;;;;;;;6.43;5.73;;;19.50;99.90;;;;;;6225690;28;20520;-64
2023/07/08 00:47:20;;;;;;;5.20;4.80;;;19.30;99.90;;;;;;6225361;28;20304;-63
2023/07/08 00:50:23;;;;;;;6.30;5.70;;;19.20;99.90;;;;;;6225144;28;20244;-63
2023/07/08 00:53:29;;;;;;;8.67;6.23;;;19.20;99.90;;;;;;6200757;28;20226;-63
2023/07/08 00:56:43;;;;;;;6.07;5.33;;;19.10;99.90;;;;;;6205938;28;20197;-63
2023/07/08 00:59:50;;;;;;;7.27;5.70;;;19.10;99.90;;;;;;6205685;28;20241;-63
2023/07/08 01:02:57;;;;;;;5.80;5.30;;;19.00;99.90;;;;;;6205401;28;20229;-64
2023/07/08 01:06:01;;;;;;;6.50;5.83;;;18.90;99.90;;;;;;6205269;28;20270;-64
2023/07/08 01:09:05;;;;;;;5.57;5.07;;;18.90;99.90;;;;;;6205791;28;20237;-63
2023/07/08 01:12:13;;;;;;;6.53;5.83;;;18.90;99.90;;;;;;6204958;28;20240;-63
2023/07/08 01:15:16;;;;;;;7.30;6.10;;;18.90;99.90;;;;;;6205321;28;20251;-63
2023/07/08 01:18:22;;;;;;;7.47;6.40;;;18.80;99.90;;;;;;6204979;28;20312;-63
2023/07/08 01:21:33;;;;;;;6.77;5.97;;;18.70;99.90;;;;;;6204844;28;20630;-64
2023/07/08 01:24:40;;;;;;;7.50;6.13;;;18.70;99.90;;;;;;6204919;28;20251;-64
2023/07/08 01:27:47;;;;;;;7.87;6.37;;;18.70;99.90;;;;;;6204746;28;20229;-64
2023/07/08 01:30:51;;;;;;;10.30;6.37;;;18.70;99.90;;;;;;6204880;28;20225;-64
2023/07/08 01:33:54;;;;;;;8.33;6.20;;;18.60;99.90;;;;;;6204671;28;20241;-63
2023/07/08 01:37:00;;;;;;;6.33;5.73;;;18.60;99.90;;;;;;6204369;28;20687;-62
2023/07/08 01:40:25;;;;;;;7.43;6.00;;;18.50;99.90;;;;;;6204237;28;20249;-62
2023/07/08 01:43:29;;;;;;;6.70;5.63;;;18.50;99.90;;;;;;6204050;28;20312;-62
2023/07/08 01:46:32;;;;;;;9.50;6.40;;;18.50;99.90;;;;;;6204379;28;20588;-62
2023/07/08 01:49:38;;;;;;;7.10;6.40;;;18.40;99.90;;;;;;6204185;28;20221;-62
2023/07/08 01:52:41;;;;;;;6.73;6.07;;;18.40;99.90;;;;;;6203941;28;20319;-63
2023/07/08 01:55:46;;;;;;;6.80;6.10;;;18.40;99.90;;;;;;6204114;28;20233;-63
2023/07/08 01:58:49;;;;;;;7.00;6.07;;;18.40;99.90;;;;;;6203715;28;20240;-63
2023/07/08 02:01:54;;;;;;;6.63;6.03;;;18.40;99.90;;;;;;6203828;28;20380;-63
2023/07/08 02:04:58;;;;;;;6.70;6.00;;;18.40;99.90;;;;;;6203346;28;20247;-62
2023/07/08 02:08:01;;;;;;;7.10;5.40;;;18.30;99.90;;;;;;6204020;28;20477;-62
2023/07/08 02:11:06;;;;;;;8.50;6.10;;;18.30;99.90;;;;;;6203953;28;20229;-62
2023/07/08 02:14:09;;;;;;;6.10;5.53;;;18.30;99.90;;;;;;6204038;28;20233;-62
2023/07/08 02:17:16;;;;;;;6.53;5.90;;;18.30;99.90;;;;;;6207835;28;20229;-62
2023/07/08 02:20:19;;;;;;;7.80;5.90;;;18.20;99.90;;;;;;6205945;28;20240;-62
2023/07/08 02:23:23;;;;;;;9.43;6.30;;;18.20;99.90;;;;;;6203121;28;20237;-62
2023/07/08 02:26:27;;;;;;;6.30;5.67;;;18.10;99.90;;;;;;6227315;28;20291;-62
2023/07/08 02:29:31;;;;;;;6.10;5.50;;;18.10;99.90;;;;;;6227990;28;20205;-62
2023/07/08 02:32:35;;;;;;;11.03;6.13;;;18.00;99.90;;;;;;6227674;28;20374;-62
2023/07/08 02:35:39;;;;;;;8.43;6.40;;;18.00;99.90;;;;;;6227361;28;20215;-62
2023/07/08 02:38:42;;;;;;;9.97;6.10;;;18.00;99.90;;;;;;6227079;28;20235;-62
2023/07/08 02:41:46;;;;;;;7.23;6.23;;;18.00;99.90;;;;;;6227386;28;20239;-62
2023/07/08 02:44:49;;;;;;;7.83;6.00;;;18.00;99.90;;;;;;6227358;28;20478;-62
2023/07/08 02:47:53;;;;;;;7.83;6.37;;;18.00;99.90;;;;;;6227614;28;20238;-63
2023/07/08 02:51:00;;;;;;;7.33;5.73;;;18.00;99.90;;;;;;6227704;28;20229;-63
2023/07/08 02:54:04;;;;;;;7.77;5.73;;;18.00;99.90;;;;;;6227598;28;20233;-62
2023/07/08 02:57:08;;;;;;;8.57;6.33;;;18.10;99.90;;;;;;6227138;28;20247;-62
2023/07/08 03:00:13;;;;;;;8.17;6.53;;;18.10;99.90;;;;;;6226890;28;20478;-62
2023/07/08 03:03:16;;;;;;;9.00;7.40;;;18.00;99.90;;;;;;6226943;28;20248;-62
2023/07/08 03:06:21;;;;;;;8.53;7.50;;;18.00;99.90;;;;;;6227059;28;20260;-62
2023/07/08 03:09:24;;;;;;;9.50;7.23;;;18.00;99.90;;;;;;6226944;28;20528;-62
2023/07/08 03:12:29;;;;;;;8.47;7.60;;;18.00;99.90;;;;;;6226489;28;20256;-63
2023/07/08 03:15:32;;;;;;;8.60;7.67;;;18.00;99.90;;;;;;6227188;28;20236;-63
2023/07/08 03:18:38;;;;;;;9.23;7.50;;;18.00;99.90;;;;;;6226122;28;20229;-62
2023/07/08 03:21:42;;;;;;;8.93;7.27;;;17.90;99.90;;;;;;6226343;28;20476;-63
2023/07/08 03:24:46;;;;;;;10.90;7.70;;;17.90;99.90;;;;;;6226571;28;20237;-63
2023/07/08 03:27:50;;;;;;;9.83;7.90;;;18.00;99.90;;;;;;6226516;28;20317;-63
2023/07/08 03:30:54;;;;;;;10.37;7.70;;;18.00;99.90;;;;;;6226583;28;20231;-63
2023/07/08 03:33:57;;;;;;;11.20;7.47;;;18.10;99.90;;;;;;6226240;28;20236;-63
2023/07/08 03:37:00;;;;;;;8.27;7.33;;;18.00;99.90;;;;;;6227406;28;20478;-63
2023/07/08 03:40:04;;;;;;;8.73;7.80;;;18.10;99.90;;;;;;6230052;28;20254;-63
2023/07/08 03:43:08;;;;;;;10.60;8.50;;;18.00;99.90;;;;;;6226694;28;20555;-64
2023/07/08 03:46:12;;;;;;;8.87;7.73;;;18.10;99.90;;;;;;6226215;28;20283;-64
2023/07/08 03:49:15;;;;;;;10.50;7.70;;;18.10;99.90;;;;;;6226242;28;20232;-63
2023/07/08 03:52:18;;;;;;;8.67;7.83;;;18.10;99.90;;;;;;6226564;28;20239;-63
2023/07/08 03:55:22;;;;;;;11.63;7.60;;;18.00;99.90;;;;;;6226033;28;20471;-63
2023/07/08 03:58:27;;;;;;;9.63;7.40;;;18.00;99.90;;;;;;6225758;28;20225;-63
2023/07/08 04:01:30;;;;;;;9.13;6.83;;;18.00;99.90;;;;;;6225790;28;20757;-63
2023/07/08 04:04:35;;;;;;;10.27;7.40;;;18.00;99.90;;;;;;6225609;28;20316;-63
2023/07/08 04:07:38;;;;;;;9.57;8.30;;;18.00;99.90;;;;;;6226250;28;20244;-63
2023/07/08 04:10:41;;;;;;;10.03;9.00;;;18.10;99.90;;;;;;6226003;28;20228;-63
2023/07/08 04:13:46;;;;;;;10.83;8.57;;;18.20;99.90;;;;;;6225426;28;20486;-63
2023/07/08 04:16:52;;;;;;;10.03;9.13;;;18.20;99.90;;;;;;6226113;28;20691;-63
2023/07/08 04:19:56;;;;;;;10.97;8.93;;;18.20;99.90;;;;;;6226495;28;20224;-63
2023/07/08 04:22:59;;;;;;;9.30;8.40;;;18.20;99.90;;;;;;6225369;28;20506;-64
2023/07/08 04:26:03;;;;;;;10.17;8.97;;;18.20;99.90;;;;;;6225641;28;20228;-63
2023/07/08 04:29:11;;;;;;;9.47;8.47;;;18.30;99.90;;;;;;6227636;28;20749;-63
2023/07/08 04:32:14;;;;;;;9.10;8.00;;;18.30;99.90;;;;;;6230362;28;20225;-63
2023/07/08 04:35:17;;;;;;;9.13;7.80;;;18.40;99.90;;;;;;6230340;28;20243;-63
2023/07/08 04:38:23;;;;;;;9.90;7.30;;;18.50;99.90;;;;;;6230108;28;20239;-63
2023/07/08 04:41:26;;;;;;;8.10;7.30;;;18.70;99.90;;;;;;6229928;28;20233;-63
2023/07/08 04:44:32;;;;;;;8.40;7.60;;;18.80;99.90;;;;;;6230153;28;20307;-63
2023/07/08 04:47:35;;;;;;;10.80;7.60;;;19.00;99.90;;;;;;6230204;28;20209;-63
2023/07/08 04:50:40;;;;;;;8.60;7.70;;;19.10;99.90;;;;;;6230349;28;20212;-63
2023/07/08 04:53:43;;;;;;;8.03;7.30;;;19.30;99.90;;;;;;6229576;28;20236;-63
2023/07/08 04:56:48;;;;;;;8.70;7.77;;;19.30;99.90;;;;;;6229908;28;20237;-63
2023/07/08 04:59:53;;;;;;;8.90;8.07;;;19.40;99.90;;;;;;6230013;28;20662;-63
2023/07/08 05:02:56;;;;;;;9.40;8.40;;;19.60;99.90;;;;;;6229479;28;20233;-63
2023/07/08 05:05:59;;;;;;;9.10;7.73;;;19.70;99.90;;;;;;6229258;28;20221;-63
2023/07/08 05:09:04;;;;;;;7.60;6.90;;;19.80;99.90;;;;;;6229737;28;20225;-63
2023/07/08 05:12:08;;;;;;;9.67;7.40;;;20.00;99.90;;;;;;6229341;28;20693;-63
2023/07/08 05:15:13;;;;;;;7.83;7.03;;;20.10;99.90;;;;;;6229507;28;20232;-63
2023/07/08 05:18:16;;;;;;;7.07;6.47;;;20.20;99.90;;;;;;6229485;28;20254;-63
2023/07/08 05:21:20;;;;;;;8.57;6.70;;;20.20;99.90;;;;;;6229050;28;20239;-63
2023/07/08 05:24:24;;;;;;;7.93;6.70;;;20.50;99.90;;;;;;6229405;28;20247;-63
2023/07/08 05:27:27;;;;;;;7.53;6.83;;;20.60;99.90;;;;;;6229443;28;20233;-63
2023/07/08 05:30:32;;;;;;;7.57;6.50;;;20.80;99.90;;;;;;6229058;28;20681;-63
2023/07/08 05:33:35;;;;;;;7.90;5.83;;;20.90;99.90;;;;;;6229028;28;20645;-63
2023/07/08 05:36:38;;;;;;;13.20;6.67;;;21.00;99.90;;;;;;6229368;28;20228;-63
2023/07/08 05:39:42;;;;;;;8.50;6.73;;;21.10;99.30;;;;;;6227923;28;20228;-63
2023/07/08 05:42:45;;;;;;;8.10;6.77;;;21.10;99.00;;;;;;6229056;28;20267;-63
2023/07/08 05:45:52;;;;;;;7.60;6.80;;;21.30;99.20;;;;;;6228865;28;20237;-63
2023/07/08 05:49:13;;;;;;;7.00;6.40;;;21.50;98.80;;;;;;6229000;28;20243;-63
2023/07/08 05:52:16;;;;;;;6.50;5.87;;;21.70;98.60;;;;;;6228767;28;20221;-64
2023/07/08 05:55:20;;;;;;;6.83;6.20;;;21.90;98.40;;;;;;6228264;28;20312;-63
2023/07/08 05:58:23;;;;;;;6.07;5.47;;;22.00;98.10;;;;;;6230923;28;20245;-64
2023/07/08 06:01:30;;;;;;;7.53;6.80;;;22.20;97.70;;;;;;6211730;28;20233;-63
2023/07/08 06:04:33;;;;;;;6.97;6.30;;;22.30;97.20;;;;;;6203728;28;20233;-63
2023/07/08 06:07:37;;;;;;;7.30;6.60;;;22.40;97.00;;;;;;6227217;28;20228;-63
2023/07/08 06:10:43;;;;;;;6.30;5.70;;;22.60;97.00;;;;;;6218442;28;20245;-64
2023/07/08 06:13:47;;;;;;;7.20;6.60;;;22.90;96.70;;;;;;6239305;28;20282;-63
2023/07/08 06:16:51;;;;;;;8.60;6.70;;;23.30;96.10;;;;;;6225025;28;20233;-63
2023/07/08 06:19:55;;;;;;;7.23;6.63;;;24.00;94.80;;;;;;6242183;28;20232;-63
2023/07/08 06:22:58;;;;;;;7.57;6.57;;;24.30;93.00;;;;;;6249942;28;20239;-63
2023/07/08 06:26:01;;;;;;;6.43;5.90;;;24.70;92.40;;;;;;6230981;28;20682;-63
2023/07/08 06:29:05;;;;;;;9.60;6.60;;;25.20;91.90;;;;;;6249254;28;20308;-64
2023/07/08 06:32:10;;;;;;;6.93;6.00;;;25.70;90.90;;;;;;6251832;28;20228;-63
2023/07/08 06:35:13;;;;;;;6.20;5.47;;;26.20;89.20;;;;;;6251962;28;20227;-63
2023/07/08 06:38:16;;;;;;;6.70;6.00;;;26.50;87.00;;;;;;6251710;28;20223;-63
2023/07/08 06:41:20;;;;;;;9.80;6.73;;;26.90;85.40;;;;;;6251420;28;20303;-64
2023/07/08 06:44:23;;;;;;;7.20;6.50;;;27.40;82.90;;;;;;6251483;28;20236;-63
2023/07/08 06:47:27;;;;;;;7.60;6.90;;;27.90;79.80;;;;;;6251529;28;20314;-64
2023/07/08 06:50:31;;;;;;;6.93;6.23;;;28.20;77.20;;;;;;6251695;28;20223;-64
2023/07/08 06:53:34;;;;;;;7.57;6.97;;;28.70;75.50;;;;;;6250916;28;20220;-64
2023/07/08 06:56:38;;;;;;;7.87;7.07;;;29.50;72.70;;;;;;6251072;28;20297;-64
2023/07/08 06:59:41;;;;;;;7.27;6.30;;;30.40;69.40;;;;;;6251131;28;20238;-64
2023/07/08 07:02:46;;;;;;;6.90;5.85;;;31.00;66.30;;;;;;6251595;28;20238;-64
2023/07/08 07:05:49;;;;;;;7.07;6.10;;;31.50;63.30;;;;;;6251123;28;20234;-64
2023/07/08 07:08:52;;;;;;;6.32;5.82;;;32.00;59.60;;;;;;6251077;28;20228;-64
2023/07/08 07:11:55;;;;;;;6.72;6.13;;;32.70;57.50;;;;;;6251077;28;20223;-64
2023/07/08 07:14:59;;;;;;;6.75;5.97;;;33.30;55.10;;;;;;6250995;28;20231;-63
2023/07/08 07:18:03;;;;;;;8.57;7.78;;;34.10;51.80;;;;;;6250740;28;20322;-64
2023/07/08 07:21:06;;;;;;;6.22;5.63;;;34.30;49.30;;;;;;6250658;28;20227;-64
2023/07/08 07:24:11;;;;;;;6.85;6.00;;;35.00;47.80;;;;;;6250696;28;20254;-64
2023/07/08 07:27:15;;;;;;;7.18;6.47;;;35.30;46.90;;;;;;6253793;28;20242;-64
2023/07/08 07:30:18;;;;;;;7.00;5.63;;;35.10;46.50;;;;;;6252486;28;20231;-64
2023/07/08 07:33:22;;;;;;;6.63;6.13;;;35.60;45.50;;;;;;6251524;28;20239;-64
2023/07/08 07:36:25;;;;;;;7.10;6.50;;;36.00;44.70;;;;;;6255490;28;20234;-64
2023/07/08 07:39:29;;;;;;;7.45;6.82;;;36.10;44.00;;;;;;6255080;28;20597;-64
2023/07/08 07:42:32;;;;;;;7.82;7.13;;;35.30;45.20;;;;;;6251228;28;20235;-64
2023/07/08 07:45:35;;;;;;;7.13;6.53;;;35.30;44.90;;;;;;6250954;28;20235;-64
2023/07/08 07:48:40;;;;;;;6.72;6.13;;;36.10;43.30;;;;;;6252798;28;20238;-64
2023/07/08 07:51:43;;;;;;;6.97;6.38;;;36.80;42.50;;;;;;6252346;28;20224;-64
2023/07/08 07:54:46;;;;;;;6.28;5.78;;;36.50;38.90;;;;;;6250986;28;20317;-64
2023/07/08 07:57:49;;;;;;;6.93;6.32;;;35.80;40.90;;;;;;6250581;28;20232;-64
2023/07/08 08:00:55;;;;;;;7.55;6.82;;;35.40;42.20;;;;;;6250902;28;20234;-64
2023/07/08 08:03:59;;;;;;;6.97;6.35;;;34.80;42.20;;;;;;6249832;28;20689;-64
2023/07/08 08:07:03;;;;;;;7.53;6.55;;;34.40;43.40;;;;;;6250476;28;20235;-64
2023/07/08 08:10:07;;;;;;;6.80;6.15;;;34.10;44.20;;;;;;6250699;28;20227;-64
2023/07/08 08:13:11;;;;;;;7.25;6.38;;;33.40;45.00;;;;;;6250437;28;20649;-64
2023/07/08 08:16:15;;;;;;;7.20;6.57;;;33.10;43.90;;;;;;6250845;28;20242;-65
2023/07/08 08:19:20;;;;;;;7.30;6.60;;;32.70;44.70;;;;;;6250846;28;20719;-63
2023/07/08 08:22:23;;;;;;;6.55;5.95;;;32.00;46.40;;;;;;6249873;28;20685;-63
2023/07/08 08:25:27;;;;;;;6.00;5.50;;;31.70;44.00;;;;;;6250295;28;20228;-65
2023/07/08 08:28:31;;;;;;;5.93;5.43;;;31.40;44.20;;;;;;6250215;28;20227;-64
2023/07/08 08:31:34;;;;;;;5.28;4.88;;;31.10;45.40;;;;;;6250576;28;20249;-63
2023/07/08 08:34:42;;;;;;;5.90;5.00;;;30.80;42.40;;;;;;6249707;28;20238;-63
2023/07/08 08:37:45;;;;;;;5.60;5.10;;;30.70;43.40;;;;;;6249828;28;20242;-64
2023/07/08 08:40:48;;;;;;;5.32;4.82;;;30.50;44.00;;;;;;6249747;28;20526;-64
2023/07/08 08:43:53;;;;;;;6.28;5.68;;;30.40;43.90;;;;;;6249281;28;20235;-64
2023/07/08 08:47:05;;;;;;;6.78;5.47;;;30.30;45.20;;;;;;6249792;28;20236;-64
2023/07/08 08:50:26;;;;;;;5.40;4.90;;;30.10;46.60;;;;;;6248577;28;20228;-64
2023/07/08 08:53:29;;;;;;;5.95;5.35;;;29.60;48.10;;;;;;6248692;28;20299;-64
2023/07/08 08:56:39;;;;;;;5.40;4.90;;;29.30;47.10;;;;;;6249904;28;20357;-62
2023/07/08 08:59:45;;;;;;;5.90;5.30;;;29.20;48.10;;;;;;6249464;28;20186;-65
2023/07/08 09:02:54;;;;;;;5.10;4.70;;;29.40;48.10;;;;;;6249263;28;20227;-63
2023/07/08 09:06:00;;;;;;;7.50;4.63;;;29.40;45.60;;;;;;6249262;28;20243;-64
2023/07/08 09:09:16;;;;;;;5.93;5.33;;;29.30;46.90;;;;;;6249134;28;20254;-63
2023/07/08 09:12:24;;;;;;;5.73;4.63;;;29.30;47.50;;;;;;6249323;28;20228;-63
2023/07/08 09:15:28;;;;;;;6.93;5.70;;;29.40;45.60;;;;;;6250518;28;20240;-64
2023/07/08 09:18:37;;;;;;;5.90;4.60;;;29.60;47.00;;;;;;6253845;28;20320;-64
2023/07/08 09:21:48;;;;;;;8.33;5.30;;;29.60;46.30;;;;;;6253485;28;20246;-64
2023/07/08 09:24:56;;;;;;;6.07;5.57;;;29.60;47.30;;;;;;6253345;28;20689;-63
2023/07/08 09:28:00;;;;;;;5.22;4.72;;;29.50;48.20;;;;;;6253647;28;20234;-63
2023/07/08 09:31:06;;;;;;;5.68;5.28;;;29.50;48.00;;;;;;6253340;28;20571;-63
2023/07/08 09:34:12;;;;;;;5.20;4.80;;;29.60;45.20;;;;;;6253545;28;20234;-63
2023/07/08 09:37:31;;;;;;;6.22;5.00;;;29.60;46.10;;;;;;6253131;28;20228;-63
2023/07/08 09:40:34;;;;;;;6.20;4.75;;;29.50;47.60;;;;;;6253495;28;20246;-63
2023/07/08 09:43:39;;;;;;;5.70;5.20;;;29.80;47.30;;;;;;6253088;28;20309;-63
2023/07/08 09:46:43;;;;;;;4.88;4.38;;;29.90;46.60;;;;;;6253458;28;20227;-63
2023/07/08 09:49:48;;;;;;;6.22;5.63;;;30.00;47.10;;;;;;6253209;28;20228;-61
2023/07/08 09:52:54;;;;;;;5.60;5.10;;;30.00;46.10;;;;;;6251890;28;20688;-64
2023/07/08 09:56:03;;;;;;;5.00;4.60;;;30.10;45.90;;;;;;6251611;28;20310;-63
2023/07/08 09:59:10;;;;;;;6.80;5.32;;;30.30;46.60;;;;;;6251317;28;20268;-63
2023/07/08 10:02:29;;;;;;;5.63;4.95;;;30.50;46.60;;;;;;6251247;28;20228;-63
2023/07/08 10:05:36;;;;;;;5.47;4.90;;;30.60;46.90;;;;;;6251120;28;20231;-64
2023/07/08 10:08:43;;;;;;;4.75;4.28;;;30.70;45.10;;;;;;6252478;28;20199;-63
2023/07/08 10:11:51;;;;;;;6.35;5.72;;;30.20;45.90;;;;;;6252346;28;20239;-64
2023/07/08 10:15:00;;;;;;;5.28;4.78;;;29.70;46.90;;;;;;6252185;28;20255;-64
2023/07/08 10:18:03;;;;;;;7.43;6.05;;;29.40;48.70;;;;;;6252203;28;20232;-65
2023/07/08 10:21:14;;;;;;;5.85;5.32;;;29.60;48.60;;;;;;6252267;28;20228;-65
2023/07/08 10:24:31;;;;;;;6.03;5.28;;;29.80;47.40;;;;;;6251035;28;20238;-64
2023/07/08 10:27:40;;;;;;;5.72;5.20;;;29.80;47.10;;;;;;6231038;28;20228;-64
2023/07/08 10:30:54;;;;;;;7.60;5.28;;;29.80;47.40;;;;;;6225564;28;20240;-63
2023/07/08 10:34:18;;;;;;;5.43;4.93;;;29.80;47.10;;;;;;6249962;28;20232;-64
2023/07/08 10:37:32;;;;;;;5.65;5.15;;;30.00;46.70;;;;;;6259050;28;20247;-63
2023/07/08 10:40:47;;;;;;;6.40;5.07;;;30.10;46.30;;;;;;6254573;28;20231;-63
2023/07/08 10:44:04;;;;;;;6.30;5.80;;;30.40;46.60;;;;;;6252406;28;20315;-64
2023/07/08 10:47:23;;;;;;;6.18;5.57;;;30.50;46.20;;;;;;6251657;28;20327;-65
2023/07/08 10:50:43;;;;;;;8.43;5.85;;;30.50;46.10;;;;;;6238431;28;20237;-64
2023/07/08 10:54:18;;;;;;;5.70;5.20;;;30.20;46.10;;;;;;6236989;28;20396;-61
2023/07/08 10:57:47;;;;;;;6.20;5.53;;;30.10;47.60;;;;;;6251121;28;20226;-64
2023/07/08 11:00:59;;;;;;;5.68;5.10;;;30.10;47.70;;;;;;6249960;28;20577;-63
2023/07/08 11:04:25;;;;;;;5.85;5.45;;;30.10;47.90;;;;;;6241347;28;20223;-63
2023/07/08 11:07:37;;;;;;;5.90;5.40;;;30.20;48.40;;;;;;6248268;28;20483;-63
2023/07/08 11:10:49;;;;;;;6.25;5.75;;;30.30;48.40;;;;;;6238345;28;20577;-63
2023/07/08 11:14:05;;;;;;;6.20;5.70;;;30.50;49.40;;;;;;6226591;28;20229;-62
2023/07/08 11:17:18;;;;;;;5.88;5.38;;;30.40;49.40;;;;;;6226040;28;20313;-63
2023/07/08 11:20:25;;;;;;;7.05;6.45;;;30.10;48.80;;;;;;6234294;28;20298;-63
2023/07/08 11:23:33;;;;;;;6.10;5.38;;;29.90;50.10;;;;;;6234117;28;20314;-63
2023/07/08 11:26:42;;;;;;;8.63;6.25;;;29.80;50.40;;;;;;6225776;28;20621;-64
2023/07/08 11:29:50;;;;;;;6.90;6.22;;;30.00;50.50;;;;;;6225856;28;20611;-62
2023/07/08 11:33:01;;;;;;;6.13;5.53;;;30.20;50.50;;;;;;6225617;28;20696;-63
2023/07/08 11:36:06;;;;;;;6.85;6.15;;;30.10;49.90;;;;;;6225925;28;20290;-62
2023/07/08 11:39:28;;;;;;;6.72;6.13;;;29.90;49.80;;;;;;6225346;28;20224;-62
2023/07/08 11:42:39;;;;;;;8.93;6.15;;;29.80;49.50;;;;;;6225956;28;20236;-62
2023/07/08 11:45:44;;;;;;;6.38;5.70;;;29.70;49.70;;;;;;6237336;28;20231;-63
2023/07/08 11:48:51;;;;;;;6.13;5.63;;;29.70;50.30;;;;;;6250270;28;20693;-62
2023/07/08 11:51:57;;;;;;;6.43;5.88;;;29.70;51.10;;;;;;6250052;28;20239;-63
2023/07/08 11:55:12;;;;;;;6.50;5.90;;;30.00;50.20;;;;;;6251128;28;20242;-62
2023/07/08 11:58:22;;;;;;;6.20;5.70;;;30.20;50.00;;;;;;6229730;28;20797;-63
2023/07/08 12:01:32;;;;;;;6.55;5.88;;;30.30;50.50;;;;;;6225939;28;20565;-63
2023/07/08 12:04:52;;;;;;;5.78;5.28;;;30.30;50.50;;;;;;6225215;28;20255;-61
2023/07/08 12:07:59;;;;;;;7.30;6.60;;;30.30;50.90;;;;;;6225756;28;20315;-62
2023/07/08 12:11:02;;;;;;;6.55;5.95;;;30.30;50.70;;;;;;6225878;28;20224;-61
2023/07/08 12:14:08;;;;;;;6.60;6.00;;;30.10;50.40;;;;;;6225982;28;20375;-62
2023/07/08 12:17:15;;;;;;;6.97;6.38;;;29.90;51.00;;;;;;6227318;28;20682;-62
2023/07/08 12:20:22;;;;;;;7.18;6.47;;;30.10;51.60;;;;;;6225953;28;20654;-64
2023/07/08 12:23:27;;;;;;;7.20;6.25;;;30.00;52.20;;;;;;6224972;28;20269;-63
2023/07/08 12:26:30;;;;;;;6.75;5.82;;;29.90;52.00;;;;;;6200949;28;20722;-63
2023/07/08 12:29:34;;;;;;;5.90;5.18;;;30.00;52.10;;;;;;6225624;28;20204;-63
2023/07/08 12:32:38;;;;;;;7.03;5.90;;;30.20;52.10;;;;;;6225046;28;20224;-62
2023/07/08 12:35:45;;;;;;;6.40;5.82;;;30.30;52.00;;;;;;6225223;28;20291;-62
2023/07/08 12:38:50;;;;;;;6.30;5.80;;;30.30;52.20;;;;;;6225028;28;20366;-62
2023/07/08 12:41:53;;;;;;;6.60;6.00;;;30.20;52.30;;;;;;6235953;28;20238;-62
2023/07/08 12:44:57;;;;;;;7.28;6.57;;;30.20;52.50;;;;;;6249197;28;20314;-64
2023/07/08 12:48:01;;;;;;;6.35;5.75;;;30.40;52.80;;;;;;6249410;28;20254;-62
2023/07/08 12:51:06;;;;;;;6.65;6.05;;;30.50;52.70;;;;;;6253134;28;20235;-63
2023/07/08 12:54:10;;;;;;;6.47;5.88;;;30.50;52.80;;;;;;6254171;28;20704;-62
2023/07/08 12:57:15;;;;;;;6.50;5.90;;;30.60;52.50;;;;;;6240898;28;20543;-63
2023/07/08 13:00:25;;;;;;;6.32;5.72;;;30.70;52.20;;;;;;6230033;28;20232;-63
2023/07/08 13:03:31;;;;;;;5.47;4.97;;;30.60;52.00;;;;;;6229505;28;20580;-62
2023/07/08 13:06:36;;;;;;;7.20;6.50;;;30.60;51.50;;;;;;6228905;28;20553;-63
2023/07/08 13:09:45;;;;;;;6.82;6.13;;;30.60;51.40;;;;;;6229264;28;20247;-63
2023/07/08 13:12:52;;;;;;;6.57;5.97;;;30.40;51.40;;;;;;6229041;28;20629;-64
2023/07/08 13:15:55;;;;;;;6.82;5.93;;;30.10;51.90;;;;;;6229081;28;20690;-62
2023/07/08 13:19:00;;;;;;;5.97;5.38;;;30.30;52.30;;;;;;6228890;28;20307;-63
2023/07/08 13:22:05;;;;;;;6.75;5.78;;;30.20;51.50;;;;;;6228400;28;20266;-63
2023/07/08 13:25:15;;;;;;;6.53;5.93;;;30.10;51.10;;;;;;6228535;28;20692;-63
2023/07/08 13:28:20;;;;;;;6.68;5.97;;;30.10;51.30;;;;;;6228723;28;20741;-62
2023/07/08 13:31:24;;;;;;;6.80;6.20;;;30.20;51.20;;;;;;6228293;28;20239;-62
2023/07/08 13:34:29;;;;;;;6.03;5.30;;;30.10;51.90;;;;;;6231019;28;20700;-62
2023/07/08 13:37:32;;;;;;;8.32;7.07;;;30.10;51.30;;;;;;6240895;28;20251;-63
2023/07/08 13:40:37;;;;;;;5.90;5.40;;;30.00;50.70;;;;;;6223830;28;20243;-63
2023/07/08 13:43:41;;;;;;;6.88;5.78;;;29.90;51.40;;;;;;6229385;28;20232;-63
2023/07/08 13:46:51;;;;;;;5.93;5.40;;;30.00;52.00;;;;;;6231375;28;20228;-62
2023/07/08 13:50:00;;;;;;;5.93;5.43;;;30.10;51.30;;;;;;6242651;28;20227;-63
2023/07/08 13:53:16;;;;;;;6.63;5.93;;;30.10;51.50;;;;;;6252138;28;20243;-62
2023/07/08 13:56:23;;;;;;;6.85;6.20;;;30.30;51.90;;;;;;6223964;28;20264;-61
2023/07/08 13:59:27;;;;;;;6.20;5.70;;;30.10;51.20;;;;;;6228083;28;20275;-62
2023/07/08 14:02:32;;;;;;;6.57;6.00;;;30.10;52.10;;;;;;6227803;28;20232;-62
2023/07/08 14:05:38;;;;;;;6.30;5.70;;;30.00;51.80;;;;;;6228680;28;20216;-61
2023/07/08 14:08:41;;;;;;;6.18;5.63;;;29.90;51.90;;;;;;6228183;28;20239;-62
2023/07/08 14:11:45;;;;;;;6.65;5.95;;;30.10;52.20;;;;;;6228064;28;20611;-62
2023/07/08 14:14:48;;;;;;;11.45;6.68;;;30.20;52.10;;;;;;6230421;28;20227;-62
2023/07/08 14:17:51;;;;;;;6.72;6.03;;;30.20;51.70;;;;;;6236384;28;20653;-61
2023/07/08 14:20:56;;;;;;;6.75;6.07;;;30.30;51.70;;;;;;6234639;28;20249;-61
2023/07/08 14:23:59;;;;;;;6.95;6.05;;;30.30;51.20;;;;;;6216013;28;20240;-62
2023/07/08 14:27:03;;;;;;;6.50;5.90;;;30.30;51.80;;;;;;6240387;28;20671;-62
2023/07/08 14:30:09;;;;;;;7.65;6.38;;;30.10;51.70;;;;;;6239906;28;20224;-63
2023/07/08 14:33:13;;;;;;;6.95;6.32;;;30.00;52.40;;;;;;6228546;28;20242;-64
2023/07/08 14:36:17;;;;;;;7.55;6.30;;;30.00;52.10;;;;;;6214991;28;20277;-63
2023/07/08 14:39:21;;;;;;;6.72;6.13;;;30.00;52.10;;;;;;6226881;28;20228;-63
2023/07/08 14:42:24;;;;;;;6.85;6.13;;;30.10;52.70;;;;;;6233483;28;20581;-63
2023/07/08 14:45:30;;;;;;;6.78;6.13;;;30.10;52.20;;;;;;6213374;28;20224;-63
2023/07/08 14:48:34;;;;;;;6.45;5.93;;;30.10;52.20;;;;;;6226051;28;20562;-61
2023/07/08 14:51:38;;;;;;;6.55;5.95;;;29.90;52.10;;;;;;6230089;28;20236;-61
2023/07/08 14:54:42;;;;;;;5.47;5.07;;;29.90;52.60;;;;;;6225067;28;20231;-61
2023/07/08 14:57:50;;;;;;;8.70;6.22;;;29.80;52.30;;;;;;6231079;28;20220;-63
2023/07/08 15:00:56;;;;;;;7.32;6.72;;;29.90;52.40;;;;;;6243048;28;20231;-61
2023/07/08 15:04:00;;;;;;;6.83;6.23;;;30.00;52.20;;;;;;6250658;28;20704;-64
2023/07/08 15:07:09;;;;;;;7.10;6.40;;;30.00;52.10;;;;;;6238422;28;20259;-62
2023/07/08 15:10:12;;;;;;;5.90;5.40;;;29.90;52.60;;;;;;6221298;28;20547;-63
2023/07/08 15:13:18;;;;;;;6.70;6.10;;;29.90;52.60;;;;;;6225380;28;20228;-62
2023/07/08 15:16:21;;;;;;;6.95;6.35;;;29.80;52.40;;;;;;6226210;28;20381;-62
2023/07/08 15:19:25;;;;;;;7.03;6.43;;;29.90;52.10;;;;;;6227339;28;20232;-62
2023/07/08 15:22:30;;;;;;;6.28;5.78;;;30.00;52.30;;;;;;6226006;28;20576;-63
2023/07/08 15:25:34;;;;;;;6.57;6.07;;;30.00;52.70;;;;;;6226629;28;20232;-62
2023/07/08 15:28:47;;;;;;;6.75;6.15;;;30.20;53.00;;;;;;6226207;28;20234;-62
2023/07/08 15:31:51;;;;;;;9.20;6.93;;;30.20;52.50;;;;;;6226377;28;20235;-62
2023/07/08 15:34:54;;;;;;;8.38;7.05;;;30.20;52.50;;;;;;6226195;28;20563;-62
2023/07/08 15:38:03;;;;;;;6.25;5.53;;;30.10;52.70;;;;;;6226246;28;20228;-63
2023/07/08 15:41:11;;;;;;;6.10;5.60;;;30.20;52.80;;;;;;6225689;28;20224;-63
2023/07/08 15:44:15;;;;;;;6.10;5.55;;;30.10;52.30;;;;;;6225906;28;20236;-63
2023/07/08 15:47:18;;;;;;;7.13;6.53;;;30.30;52.30;;;;;;6225117;28;20232;-63
2023/07/08 15:50:25;;;;;;;6.55;5.95;;;30.40;52.80;;;;;;6226181;28;20302;-64
2023/07/08 15:53:30;;;;;;;6.55;5.50;;;30.30;52.30;;;;;;6225983;28;20242;-62
2023/07/08 15:56:33;;;;;;;6.05;5.55;;;30.40;52.10;;;;;;6226458;28;20211;-64
2023/07/08 15:59:37;;;;;;;5.53;5.03;;;30.40;52.10;;;;;;6226736;28;20212;-63
2023/07/08 16:02:40;;;;;;;6.70;6.10;;;30.40;52.40;;;;;;6226864;28;20255;-63
2023/07/08 16:05:43;;;;;;;6.40;5.80;;;30.40;52.10;;;;;;6227086;28;20235;-64